sensor_id;sensor_type;location;lat;lon;timestamp;P1;durP1;ratioP1;P2;durP2;ratioP2
51244;SDS011;37840;47.562;18.738;2024-02-15T00:01:03;18.27;;;14.23;;
51244;SDS011;37840;47.562;18.738;2024-02-15T00:03:30;19.12;;;13.43;;
51244;SDS011;37840;47.562;18.738;2024-02-15T00:05:57;16.67;;;12.50;;
51244;SDS011;37840;47.562;18.738;2024-02-15T00:08:23;14.87;;;11.75;;
51244;SDS011;37840;47.562;18.738;2024-02-15T00:10:50;16.05;;;11.60;;
51244;SDS011;37840;47.562;18.738;2024-02-15T00:13:16;14.27;;;10.73;;
51244;SDS011;37840;47.562;18.738;2024-02-15T00:15:42;15.52;;;10.93;;
51244;SDS011;37840;47.562;18.738;2024-02-15T00:18:08;15.23;;;11.75;;
51244;SDS011;37840;47.562;18.738;2024-02-15T00:20:34;16.15;;;11.38;;
51244;SDS011;37840;47.562;18.738;2024-02-15T00:23:00;17.48;;;12.10;;
51244;SDS011;37840;47.562;18.738;2024-02-15T00:25:26;15.95;;;12.37;;
51244;SDS011;37840;47.562;18.738;2024-02-15T00:27:52;15.13;;;12.07;;
51244;SDS011;37840;47.562;18.738;2024-02-15T00:30:18;15.35;;;11.98;;
51244;SDS011;37840;47.562;18.738;2024-02-15T00:32:44;16.30;;;11.98;;
51244;SDS011;37840;47.562;18.738;2024-02-15T00:35:11;15.93;;;11.77;;
51244;SDS011;37840;47.562;18.738;2024-02-15T00:37:40;19.17;;;12.15;;
51244;SDS011;37840;47.562;18.738;2024-02-15T00:40:06;19.15;;;12.48;;
51244;SDS011;37840;47.562;18.738;2024-02-15T00:42:33;17.35;;;12.15;;
51244;SDS011;37840;47.562;18.738;2024-02-15T00:44:59;20.95;;;13.27;;
51244;SDS011;37840;47.562;18.738;2024-02-15T00:47:25;19.02;;;13.18;;
51244;SDS011;37840;47.562;18.738;2024-02-15T00:49:50;18.52;;;12.40;;
51244;SDS011;37840;47.562;18.738;2024-02-15T00:52:16;20.42;;;13.30;;
51244;SDS011;37840;47.562;18.738;2024-02-15T00:54:45;18.23;;;12.15;;
51244;SDS011;37840;47.562;18.738;2024-02-15T00:57:12;17.55;;;12.32;;
51244;SDS011;37840;47.562;18.738;2024-02-15T00:59:38;16.37;;;13.23;;
51244;SDS011;37840;47.562;18.738;2024-02-15T01:02:04;17.60;;;13.25;;
51244;SDS011;37840;47.562;18.738;2024-02-15T01:04:30;21.00;;;14.82;;
51244;SDS011;37840;47.562;18.738;2024-02-15T01:06:56;17.77;;;12.18;;
51244;SDS011;37840;47.562;18.738;2024-02-15T01:09:22;18.58;;;12.95;;
51244;SDS011;37840;47.562;18.738;2024-02-15T01:11:48;19.08;;;13.15;;
51244;SDS011;37840;47.562;18.738;2024-02-15T01:14:14;17.05;;;13.20;;
51244;SDS011;37840;47.562;18.738;2024-02-15T01:16:44;16.45;;;12.90;;
51244;SDS011;37840;47.562;18.738;2024-02-15T01:19:10;18.37;;;13.70;;
51244;SDS011;37840;47.562;18.738;2024-02-15T01:21:36;17.80;;;13.43;;
51244;SDS011;37840;47.562;18.738;2024-02-15T01:24:02;15.80;;;12.60;;
51244;SDS011;37840;47.562;18.738;2024-02-15T01:26:32;16.83;;;12.60;;
51244;SDS011;37840;47.562;18.738;2024-02-15T01:28:58;16.58;;;12.37;;
51244;SDS011;37840;47.562;18.738;2024-02-15T01:31:24;16.37;;;12.18;;
51244;SDS011;37840;47.562;18.738;2024-02-15T01:33:50;12.73;;;10.63;;
51244;SDS011;37840;47.562;18.738;2024-02-15T01:36:16;14.57;;;11.75;;
51244;SDS011;37840;47.562;18.738;2024-02-15T01:38:43;16.73;;;11.82;;
51244;SDS011;37840;47.562;18.738;2024-02-15T01:41:10;15.38;;;11.20;;
51244;SDS011;37840;47.562;18.738;2024-02-15T01:43:36;15.32;;;11.10;;
51244;SDS011;37840;47.562;18.738;2024-02-15T01:46:07;16.65;;;11.98;;
51244;SDS011;37840;47.562;18.738;2024-02-15T01:48:35;15.85;;;11.73;;
51244;SDS011;37840;47.562;18.738;2024-02-15T01:51:02;15.68;;;11.15;;
51244;SDS011;37840;47.562;18.738;2024-02-15T01:53:30;13.25;;;10.52;;
51244;SDS011;37840;47.562;18.738;2024-02-15T01:55:56;14.00;;;11.25;;
51244;SDS011;37840;47.562;18.738;2024-02-15T01:58:26;12.88;;;10.40;;
51244;SDS011;37840;47.562;18.738;2024-02-15T02:00:52;12.63;;;9.70;;
51244;SDS011;37840;47.562;18.738;2024-02-15T02:03:20;11.93;;;9.50;;
51244;SDS011;37840;47.562;18.738;2024-02-15T02:05:47;11.27;;;9.27;;
51244;SDS011;37840;47.562;18.738;2024-02-15T02:08:13;14.13;;;9.07;;
51244;SDS011;37840;47.562;18.738;2024-02-15T02:10:39;11.70;;;8.70;;
51244;SDS011;37840;47.562;18.738;2024-02-15T02:13:05;11.55;;;8.93;;
51244;SDS011;37840;47.562;18.738;2024-02-15T02:15:32;9.35;;;7.65;;
51244;SDS011;37840;47.562;18.738;2024-02-15T02:17:58;9.93;;;8.05;;
51244;SDS011;37840;47.562;18.738;2024-02-15T02:20:26;9.25;;;8.00;;
51244;SDS011;37840;47.562;18.738;2024-02-15T02:23:04;8.55;;;7.60;;
51244;SDS011;37840;47.562;18.738;2024-02-15T02:25:33;10.25;;;7.90;;
51244;SDS011;37840;47.562;18.738;2024-02-15T02:28:00;12.27;;;8.10;;
51244;SDS011;37840;47.562;18.738;2024-02-15T02:30:26;10.80;;;7.78;;
51244;SDS011;37840;47.562;18.738;2024-02-15T02:32:55;9.70;;;6.97;;
51244;SDS011;37840;47.562;18.738;2024-02-15T02:35:22;9.98;;;7.62;;
51244;SDS011;37840;47.562;18.738;2024-02-15T02:37:48;9.32;;;7.28;;
51244;SDS011;37840;47.562;18.738;2024-02-15T02:40:14;9.40;;;7.22;;
51244;SDS011;37840;47.562;18.738;2024-02-15T02:42:50;10.10;;;8.18;;
51244;SDS011;37840;47.562;18.738;2024-02-15T02:45:21;10.10;;;8.02;;
51244;SDS011;37840;47.562;18.738;2024-02-15T02:47:51;11.23;;;8.57;;
51244;SDS011;37840;47.562;18.738;2024-02-15T02:50:18;12.53;;;8.50;;
51244;SDS011;37840;47.562;18.738;2024-02-15T02:52:45;13.62;;;9.05;;
51244;SDS011;37840;47.562;18.738;2024-02-15T02:55:14;11.10;;;8.15;;
51244;SDS011;37840;47.562;18.738;2024-02-15T02:57:40;11.75;;;8.50;;
51244;SDS011;37840;47.562;18.738;2024-02-15T03:00:08;11.25;;;7.80;;
51244;SDS011;37840;47.562;18.738;2024-02-15T03:02:39;11.68;;;8.75;;
51244;SDS011;37840;47.562;18.738;2024-02-15T03:05:05;8.85;;;7.30;;
51244;SDS011;37840;47.562;18.738;2024-02-15T03:07:34;9.15;;;7.07;;
51244;SDS011;37840;47.562;18.738;2024-02-15T03:10:01;11.20;;;7.90;;
51244;SDS011;37840;47.562;18.738;2024-02-15T03:12:30;11.90;;;8.90;;
51244;SDS011;37840;47.562;18.738;2024-02-15T03:14:56;11.82;;;8.02;;
51244;SDS011;37840;47.562;18.738;2024-02-15T03:17:23;14.75;;;8.38;;
51244;SDS011;37840;47.562;18.738;2024-02-15T03:19:49;10.98;;;8.18;;
51244;SDS011;37840;47.562;18.738;2024-02-15T03:22:15;10.63;;;7.65;;
51244;SDS011;37840;47.562;18.738;2024-02-15T03:24:41;9.40;;;8.10;;
51244;SDS011;37840;47.562;18.738;2024-02-15T03:27:07;10.88;;;8.05;;
51244;SDS011;37840;47.562;18.738;2024-02-15T03:29:36;12.05;;;8.63;;
51244;SDS011;37840;47.562;18.738;2024-02-15T03:32:02;11.00;;;8.57;;
51244;SDS011;37840;47.562;18.738;2024-02-15T03:34:29;11.18;;;8.48;;
51244;SDS011;37840;47.562;18.738;2024-02-15T03:36:57;12.43;;;7.95;;
51244;SDS011;37840;47.562;18.738;2024-02-15T03:39:23;10.23;;;8.93;;
51244;SDS011;37840;47.562;18.738;2024-02-15T03:41:50;11.80;;;8.52;;
51244;SDS011;37840;47.562;18.738;2024-02-15T03:44:17;9.95;;;8.38;;
51244;SDS011;37840;47.562;18.738;2024-02-15T03:46:44;13.90;;;9.88;;
51244;SDS011;37840;47.562;18.738;2024-02-15T03:49:17;10.90;;;8.65;;
51244;SDS011;37840;47.562;18.738;2024-02-15T03:51:43;10.85;;;8.63;;
51244;SDS011;37840;47.562;18.738;2024-02-15T03:54:13;10.15;;;8.15;;
51244;SDS011;37840;47.562;18.738;2024-02-15T03:56:46;16.00;;;10.45;;
51244;SDS011;37840;47.562;18.738;2024-02-15T03:59:12;13.70;;;10.25;;
51244;SDS011;37840;47.562;18.738;2024-02-15T04:01:38;16.80;;;11.70;;
51244;SDS011;37840;47.562;18.738;2024-02-15T04:04:05;14.23;;;11.00;;
51244;SDS011;37840;47.562;18.738;2024-02-15T04:06:31;14.55;;;11.82;;
51244;SDS011;37840;47.562;18.738;2024-02-15T04:08:59;15.00;;;10.50;;
51244;SDS011;37840;47.562;18.738;2024-02-15T04:11:25;13.62;;;11.50;;
51244;SDS011;37840;47.562;18.738;2024-02-15T04:13:51;15.07;;;11.32;;
51244;SDS011;37840;47.562;18.738;2024-02-15T04:16:17;15.35;;;11.45;;
51244;SDS011;37840;47.562;18.738;2024-02-15T04:18:43;16.02;;;11.35;;
51244;SDS011;37840;47.562;18.738;2024-02-15T04:21:11;16.60;;;12.13;;
51244;SDS011;37840;47.562;18.738;2024-02-15T04:23:36;14.43;;;10.98;;
51244;SDS011;37840;47.562;18.738;2024-02-15T04:26:02;14.32;;;11.12;;
51244;SDS011;37840;47.562;18.738;2024-02-15T04:28:29;13.62;;;11.12;;
51244;SDS011;37840;47.562;18.738;2024-02-15T04:30:55;15.48;;;11.00;;
51244;SDS011;37840;47.562;18.738;2024-02-15T04:33:21;15.60;;;12.05;;
51244;SDS011;37840;47.562;18.738;2024-02-15T04:35:47;15.63;;;11.57;;
51244;SDS011;37840;47.562;18.738;2024-02-15T04:38:15;14.30;;;10.82;;
51244;SDS011;37840;47.562;18.738;2024-02-15T04:40:41;13.50;;;10.98;;
51244;SDS011;37840;47.562;18.738;2024-02-15T04:43:07;16.87;;;10.73;;
51244;SDS011;37840;47.562;18.738;2024-02-15T04:45:34;15.05;;;10.65;;
51244;SDS011;37840;47.562;18.738;2024-02-15T04:48:01;13.38;;;10.75;;
51244;SDS011;37840;47.562;18.738;2024-02-15T04:50:28;14.13;;;11.05;;
51244;SDS011;37840;47.562;18.738;2024-02-15T04:52:55;14.15;;;10.68;;
51244;SDS011;37840;47.562;18.738;2024-02-15T04:55:21;16.50;;;12.10;;
51244;SDS011;37840;47.562;18.738;2024-02-15T04:57:49;14.15;;;10.68;;
51244;SDS011;37840;47.562;18.738;2024-02-15T05:00:15;13.60;;;10.65;;
51244;SDS011;37840;47.562;18.738;2024-02-15T05:02:42;12.02;;;9.85;;
51244;SDS011;37840;47.562;18.738;2024-02-15T05:05:10;15.32;;;10.90;;
51244;SDS011;37840;47.562;18.738;2024-02-15T05:07:38;13.38;;;9.98;;
51244;SDS011;37840;47.562;18.738;2024-02-15T05:10:05;14.98;;;10.77;;
51244;SDS011;37840;47.562;18.738;2024-02-15T05:12:32;14.05;;;10.80;;
51244;SDS011;37840;47.562;18.738;2024-02-15T05:14:59;12.43;;;10.05;;
51244;SDS011;37840;47.562;18.738;2024-02-15T05:17:25;14.30;;;11.12;;
51244;SDS011;37840;47.562;18.738;2024-02-15T05:19:54;14.43;;;10.60;;
51244;SDS011;37840;47.562;18.738;2024-02-15T05:22:25;14.55;;;10.50;;
51244;SDS011;37840;47.562;18.738;2024-02-15T05:24:54;12.75;;;9.77;;
51244;SDS011;37840;47.562;18.738;2024-02-15T05:27:21;12.57;;;9.48;;
51244;SDS011;37840;47.562;18.738;2024-02-15T05:29:49;11.02;;;9.75;;
51244;SDS011;37840;47.562;18.738;2024-02-15T05:32:18;12.15;;;10.02;;
51244;SDS011;37840;47.562;18.738;2024-02-15T05:34:46;14.05;;;10.38;;
51244;SDS011;37840;47.562;18.738;2024-02-15T05:37:14;11.85;;;8.68;;
51244;SDS011;37840;47.562;18.738;2024-02-15T05:39:41;11.80;;;8.93;;
51244;SDS011;37840;47.562;18.738;2024-02-15T05:42:07;9.93;;;8.10;;
51244;SDS011;37840;47.562;18.738;2024-02-15T05:44:33;11.68;;;8.20;;
51244;SDS011;37840;47.562;18.738;2024-02-15T05:47:00;10.52;;;8.00;;
51244;SDS011;37840;47.562;18.738;2024-02-15T05:49:26;11.15;;;8.60;;
51244;SDS011;37840;47.562;18.738;2024-02-15T05:51:53;12.25;;;9.15;;
51244;SDS011;37840;47.562;18.738;2024-02-15T05:54:19;11.45;;;8.48;;
51244;SDS011;37840;47.562;18.738;2024-02-15T05:56:45;12.35;;;8.55;;
51244;SDS011;37840;47.562;18.738;2024-02-15T05:59:11;10.93;;;8.98;;
51244;SDS011;37840;47.562;18.738;2024-02-15T06:01:37;14.23;;;9.00;;
51244;SDS011;37840;47.562;18.738;2024-02-15T06:04:04;14.05;;;9.60;;
51244;SDS011;37840;47.562;18.738;2024-02-15T06:06:36;13.45;;;9.45;;
51244;SDS011;37840;47.562;18.738;2024-02-15T06:09:02;13.40;;;10.25;;
51244;SDS011;37840;47.562;18.738;2024-02-15T06:11:30;14.43;;;10.75;;
51244;SDS011;37840;47.562;18.738;2024-02-15T06:13:56;14.70;;;11.38;;
51244;SDS011;37840;47.562;18.738;2024-02-15T06:16:21;14.80;;;10.68;;
51244;SDS011;37840;47.562;18.738;2024-02-15T06:18:47;15.85;;;10.98;;
51244;SDS011;37840;47.562;18.738;2024-02-15T06:21:13;15.60;;;11.65;;
51244;SDS011;37840;47.562;18.738;2024-02-15T06:23:39;18.50;;;11.95;;
51244;SDS011;37840;47.562;18.738;2024-02-15T06:26:06;19.08;;;12.77;;
51244;SDS011;37840;47.562;18.738;2024-02-15T06:28:32;13.85;;;11.60;;
51244;SDS011;37840;47.562;18.738;2024-02-15T06:31:16;16.98;;;12.15;;
51244;SDS011;37840;47.562;18.738;2024-02-15T06:34:01;18.05;;;12.35;;
51244;SDS011;37840;47.562;18.738;2024-02-15T06:36:49;14.77;;;12.13;;
51244;SDS011;37840;47.562;18.738;2024-02-15T06:39:34;17.62;;;13.07;;
51244;SDS011;37840;47.562;18.738;2024-02-15T06:42:03;17.58;;;12.85;;
51244;SDS011;37840;47.562;18.738;2024-02-15T06:44:30;17.10;;;12.40;;
51244;SDS011;37840;47.562;18.738;2024-02-15T06:46:55;17.95;;;12.60;;
51244;SDS011;37840;47.562;18.738;2024-02-15T06:49:23;17.50;;;11.68;;
51244;SDS011;37840;47.562;18.738;2024-02-15T06:51:51;16.60;;;12.15;;
51244;SDS011;37840;47.562;18.738;2024-02-15T06:54:18;15.85;;;12.15;;
51244;SDS011;37840;47.562;18.738;2024-02-15T06:56:44;16.58;;;12.57;;
51244;SDS011;37840;47.562;18.738;2024-02-15T06:59:13;17.85;;;13.32;;
51244;SDS011;37840;47.562;18.738;2024-02-15T07:01:42;18.02;;;12.73;;
51244;SDS011;37840;47.562;18.738;2024-02-15T07:04:08;16.70;;;12.73;;
51244;SDS011;37840;47.562;18.738;2024-02-15T07:06:38;29.02;;;19.35;;
51244;SDS011;37840;47.562;18.738;2024-02-15T07:09:05;36.85;;;22.80;;
51244;SDS011;37840;47.562;18.738;2024-02-15T07:11:32;35.58;;;22.27;;
51244;SDS011;37840;47.562;18.738;2024-02-15T07:14:00;32.97;;;22.17;;
51244;SDS011;37840;47.562;18.738;2024-02-15T07:16:33;23.42;;;17.15;;
51244;SDS011;37840;47.562;18.738;2024-02-15T07:18:59;18.67;;;14.93;;
51244;SDS011;37840;47.562;18.738;2024-02-15T07:21:25;27.77;;;17.25;;
51244;SDS011;37840;47.562;18.738;2024-02-15T07:23:53;31.48;;;19.40;;
51244;SDS011;37840;47.562;18.738;2024-02-15T07:26:23;28.35;;;16.37;;
51244;SDS011;37840;47.562;18.738;2024-02-15T07:28:53;24.80;;;16.10;;
51244;SDS011;37840;47.562;18.738;2024-02-15T07:31:20;23.02;;;15.02;;
51244;SDS011;37840;47.562;18.738;2024-02-15T07:33:50;16.75;;;12.88;;
51244;SDS011;37840;47.562;18.738;2024-02-15T07:36:20;16.52;;;11.18;;
51244;SDS011;37840;47.562;18.738;2024-02-15T07:38:50;16.75;;;12.45;;
51244;SDS011;37840;47.562;18.738;2024-02-15T07:41:17;16.52;;;11.90;;
51244;SDS011;37840;47.562;18.738;2024-02-15T07:43:48;19.85;;;13.07;;
51244;SDS011;37840;47.562;18.738;2024-02-15T07:46:14;18.30;;;13.27;;
51244;SDS011;37840;47.562;18.738;2024-02-15T07:48:45;18.00;;;12.43;;
51244;SDS011;37840;47.562;18.738;2024-02-15T07:51:18;20.25;;;12.45;;
51244;SDS011;37840;47.562;18.738;2024-02-15T07:53:45;17.17;;;12.90;;
51244;SDS011;37840;47.562;18.738;2024-02-15T07:56:12;16.92;;;12.45;;
51244;SDS011;37840;47.562;18.738;2024-02-15T07:58:42;15.85;;;12.40;;
51244;SDS011;37840;47.562;18.738;2024-02-15T08:01:13;19.87;;;15.55;;
51244;SDS011;37840;47.562;18.738;2024-02-15T08:03:39;26.55;;;19.83;;
51244;SDS011;37840;47.562;18.738;2024-02-15T08:06:12;34.40;;;20.98;;
51244;SDS011;37840;47.562;18.738;2024-02-15T08:08:39;26.05;;;18.33;;
51244;SDS011;37840;47.562;18.738;2024-02-15T08:11:07;26.50;;;18.80;;
51244;SDS011;37840;47.562;18.738;2024-02-15T08:13:43;29.05;;;19.35;;
51244;SDS011;37840;47.562;18.738;2024-02-15T08:16:15;33.75;;;20.17;;
51244;SDS011;37840;47.562;18.738;2024-02-15T08:18:44;28.50;;;20.15;;
51244;SDS011;37840;47.562;18.738;2024-02-15T08:21:11;34.08;;;20.08;;
51244;SDS011;37840;47.562;18.738;2024-02-15T08:23:38;33.67;;;20.70;;
51244;SDS011;37840;47.562;18.738;2024-02-15T08:26:04;33.35;;;20.33;;
51244;SDS011;37840;47.562;18.738;2024-02-15T08:28:30;34.55;;;20.45;;
51244;SDS011;37840;47.562;18.738;2024-02-15T08:30:57;26.60;;;18.70;;
51244;SDS011;37840;47.562;18.738;2024-02-15T08:33:24;28.40;;;19.17;;
51244;SDS011;37840;47.562;18.738;2024-02-15T08:35:50;22.60;;;16.73;;
51244;SDS011;37840;47.562;18.738;2024-02-15T08:38:16;27.62;;;17.75;;
51244;SDS011;37840;47.562;18.738;2024-02-15T08:40:42;25.48;;;18.42;;
51244;SDS011;37840;47.562;18.738;2024-02-15T08:43:11;24.20;;;17.90;;
51244;SDS011;37840;47.562;18.738;2024-02-15T08:45:37;22.87;;;16.12;;
51244;SDS011;37840;47.562;18.738;2024-02-15T08:48:03;21.35;;;15.65;;
51244;SDS011;37840;47.562;18.738;2024-02-15T08:50:30;22.80;;;15.40;;
51244;SDS011;37840;47.562;18.738;2024-02-15T08:52:56;20.90;;;16.20;;
51244;SDS011;37840;47.562;18.738;2024-02-15T08:55:22;18.90;;;14.75;;
51244;SDS011;37840;47.562;18.738;2024-02-15T08:57:52;22.73;;;15.23;;
51244;SDS011;37840;47.562;18.738;2024-02-15T09:00:19;21.33;;;14.45;;
51244;SDS011;37840;47.562;18.738;2024-02-15T09:02:46;18.87;;;14.68;;
51244;SDS011;37840;47.562;18.738;2024-02-15T09:05:13;18.62;;;13.80;;
51244;SDS011;37840;47.562;18.738;2024-02-15T09:07:43;19.73;;;14.38;;
51244;SDS011;37840;47.562;18.738;2024-02-15T09:10:13;19.25;;;13.70;;
51244;SDS011;37840;47.562;18.738;2024-02-15T09:12:43;19.33;;;13.77;;
51244;SDS011;37840;47.562;18.738;2024-02-15T09:15:10;19.33;;;13.68;;
51244;SDS011;37840;47.562;18.738;2024-02-15T09:17:36;18.40;;;12.77;;
51244;SDS011;37840;47.562;18.738;2024-02-15T09:20:09;20.23;;;12.75;;
51244;SDS011;37840;47.562;18.738;2024-02-15T09:22:40;18.17;;;13.85;;
51244;SDS011;37840;47.562;18.738;2024-02-15T09:25:06;17.35;;;11.85;;
51244;SDS011;37840;47.562;18.738;2024-02-15T09:27:33;14.80;;;11.38;;
51244;SDS011;37840;47.562;18.738;2024-02-15T09:29:59;15.25;;;12.07;;
51244;SDS011;37840;47.562;18.738;2024-02-15T09:32:25;14.35;;;11.32;;
51244;SDS011;37840;47.562;18.738;2024-02-15T09:34:51;14.90;;;10.50;;
51244;SDS011;37840;47.562;18.738;2024-02-15T09:37:17;15.10;;;11.12;;
51244;SDS011;37840;47.562;18.738;2024-02-15T09:39:43;13.93;;;11.52;;
51244;SDS011;37840;47.562;18.738;2024-02-15T09:42:09;12.02;;;9.75;;
51244;SDS011;37840;47.562;18.738;2024-02-15T09:44:35;13.95;;;9.75;;
51244;SDS011;37840;47.562;18.738;2024-02-15T09:49:37;12.35;;;9.82;;
51244;SDS011;37840;47.562;18.738;2024-02-15T09:52:08;12.68;;;9.75;;
51244;SDS011;37840;47.562;18.738;2024-02-15T09:54:40;12.43;;;9.65;;
51244;SDS011;37840;47.562;18.738;2024-02-15T09:57:10;10.77;;;8.40;;
51244;SDS011;37840;47.562;18.738;2024-02-15T09:59:37;11.52;;;9.55;;
51244;SDS011;37840;47.562;18.738;2024-02-15T10:02:04;10.95;;;8.57;;
51244;SDS011;37840;47.562;18.738;2024-02-15T10:04:39;12.48;;;8.65;;
51244;SDS011;37840;47.562;18.738;2024-02-15T10:07:05;9.63;;;8.43;;
51244;SDS011;37840;47.562;18.738;2024-02-15T10:09:34;10.23;;;8.60;;
51244;SDS011;37840;47.562;18.738;2024-02-15T10:12:02;11.23;;;8.90;;
51244;SDS011;37840;47.562;18.738;2024-02-15T10:14:32;11.88;;;9.00;;
51244;SDS011;37840;47.562;18.738;2024-02-15T10:17:08;10.80;;;8.57;;
51244;SDS011;37840;47.562;18.738;2024-02-15T10:19:37;10.95;;;8.02;;
51244;SDS011;37840;47.562;18.738;2024-02-15T10:22:07;11.35;;;8.13;;
51244;SDS011;37840;47.562;18.738;2024-02-15T10:24:34;12.02;;;7.90;;
51244;SDS011;37840;47.562;18.738;2024-02-15T10:27:01;10.50;;;8.52;;
51244;SDS011;37840;47.562;18.738;2024-02-15T10:29:35;13.70;;;9.05;;
51244;SDS011;37840;47.562;18.738;2024-02-15T10:32:01;11.65;;;8.85;;
51244;SDS011;37840;47.562;18.738;2024-02-15T10:34:29;9.10;;;7.68;;
51244;SDS011;37840;47.562;18.738;2024-02-15T10:37:10;10.38;;;8.00;;
51244;SDS011;37840;47.562;18.738;2024-02-15T10:39:37;9.88;;;7.68;;
51244;SDS011;37840;47.562;18.738;2024-02-15T10:42:06;9.70;;;7.30;;
51244;SDS011;37840;47.562;18.738;2024-02-15T10:44:36;10.18;;;7.50;;
51244;SDS011;37840;47.562;18.738;2024-02-15T10:47:04;9.25;;;7.85;;
51244;SDS011;37840;47.562;18.738;2024-02-15T10:49:35;8.82;;;6.90;;
51244;SDS011;37840;47.562;18.738;2024-02-15T10:52:01;16.67;;;8.15;;
51244;SDS011;37840;47.562;18.738;2024-02-15T10:57:05;12.15;;;9.15;;
51244;SDS011;37840;47.562;18.738;2024-02-15T10:59:32;11.18;;;8.00;;
51244;SDS011;37840;47.562;18.738;2024-02-15T11:05:05;8.95;;;6.70;;
51244;SDS011;37840;47.562;18.738;2024-02-15T11:07:35;9.40;;;7.45;;
51244;SDS011;37840;47.562;18.738;2024-02-15T11:10:03;9.50;;;7.43;;
51244;SDS011;37840;47.562;18.738;2024-02-15T11:12:33;10.52;;;7.68;;
51244;SDS011;37840;47.562;18.738;2024-02-15T11:15:00;8.88;;;7.30;;
51244;SDS011;37840;47.562;18.738;2024-02-15T11:23:04;7.65;;;6.35;;
51244;SDS011;37840;47.562;18.738;2024-02-15T11:25:34;9.32;;;7.05;;
51244;SDS011;37840;47.562;18.738;2024-02-15T11:31:07;9.35;;;7.37;;
51244;SDS011;37840;47.562;18.738;2024-02-15T11:33:35;8.25;;;7.15;;
51244;SDS011;37840;47.562;18.738;2024-02-15T11:36:02;11.50;;;7.50;;
51244;SDS011;37840;47.562;18.738;2024-02-15T11:41:02;9.63;;;7.80;;
51244;SDS011;37840;47.562;18.738;2024-02-15T11:46:17;13.30;;;9.30;;
51244;SDS011;37840;47.562;18.738;2024-02-15T11:48:57;10.60;;;8.45;;
51244;SDS011;37840;47.562;18.738;2024-02-15T11:51:33;17.30;;;11.70;;
51244;SDS011;37840;47.562;18.738;2024-02-15T11:54:03;18.92;;;13.20;;
51244;SDS011;37840;47.562;18.738;2024-02-15T11:59:13;19.87;;;14.32;;
51244;SDS011;37840;47.562;18.738;2024-02-15T12:01:57;15.93;;;12.68;;
51244;SDS011;37840;47.562;18.738;2024-02-15T12:04:43;19.08;;;14.23;;
51244;SDS011;37840;47.562;18.738;2024-02-15T12:07:31;18.12;;;12.80;;
51244;SDS011;37840;47.562;18.738;2024-02-15T12:10:17;17.83;;;11.95;;
51244;SDS011;37840;47.562;18.738;2024-02-15T12:13:02;17.25;;;12.93;;
51244;SDS011;37840;47.562;18.738;2024-02-15T12:15:56;17.62;;;12.93;;
51244;SDS011;37840;47.562;18.738;2024-02-15T12:18:42;21.25;;;14.43;;
51244;SDS011;37840;47.562;18.738;2024-02-15T12:21:08;19.98;;;15.80;;
51244;SDS011;37840;47.562;18.738;2024-02-15T12:23:38;18.02;;;15.45;;
51244;SDS011;37840;47.562;18.738;2024-02-15T12:26:04;20.90;;;16.52;;
51244;SDS011;37840;47.562;18.738;2024-02-15T12:28:30;21.30;;;16.67;;
51244;SDS011;37840;47.562;18.738;2024-02-15T12:30:57;19.65;;;13.50;;
51244;SDS011;37840;47.562;18.738;2024-02-15T12:33:23;25.65;;;16.08;;
51244;SDS011;37840;47.562;18.738;2024-02-15T12:35:50;20.08;;;15.18;;
51244;SDS011;37840;47.562;18.738;2024-02-15T12:38:16;20.23;;;15.68;;
51244;SDS011;37840;47.562;18.738;2024-02-15T12:40:42;20.98;;;14.87;;
51244;SDS011;37840;47.562;18.738;2024-02-15T12:43:12;20.45;;;15.68;;
51244;SDS011;37840;47.562;18.738;2024-02-15T12:45:39;23.10;;;17.48;;
51244;SDS011;37840;47.562;18.738;2024-02-15T12:48:07;23.62;;;17.08;;
51244;SDS011;37840;47.562;18.738;2024-02-15T12:50:33;21.90;;;16.73;;
51244;SDS011;37840;47.562;18.738;2024-02-15T12:53:00;25.67;;;18.48;;
51244;SDS011;37840;47.562;18.738;2024-02-15T12:55:31;25.17;;;16.67;;
51244;SDS011;37840;47.562;18.738;2024-02-15T12:58:02;24.05;;;18.00;;
51244;SDS011;37840;47.562;18.738;2024-02-15T13:00:34;26.75;;;17.17;;
51244;SDS011;37840;47.562;18.738;2024-02-15T13:03:06;22.75;;;17.33;;
51244;SDS011;37840;47.562;18.738;2024-02-15T13:05:37;21.62;;;16.08;;
51244;SDS011;37840;47.562;18.738;2024-02-15T13:08:04;25.08;;;16.90;;
51244;SDS011;37840;47.562;18.738;2024-02-15T13:10:38;25.70;;;17.37;;
51244;SDS011;37840;47.562;18.738;2024-02-15T13:13:04;22.27;;;17.45;;
51244;SDS011;37840;47.562;18.738;2024-02-15T13:15:31;23.35;;;18.58;;
51244;SDS011;37840;47.562;18.738;2024-02-15T13:18:01;31.73;;;18.03;;
51244;SDS011;37840;47.562;18.738;2024-02-15T13:20:31;23.48;;;16.77;;
51244;SDS011;37840;47.562;18.738;2024-02-15T13:23:03;24.33;;;16.50;;
51244;SDS011;37840;47.562;18.738;2024-02-15T13:25:56;21.60;;;16.05;;
51244;SDS011;37840;47.562;18.738;2024-02-15T13:28:23;21.50;;;15.85;;
51244;SDS011;37840;47.562;18.738;2024-02-15T13:30:50;20.40;;;16.52;;
51244;SDS011;37840;47.562;18.738;2024-02-15T13:33:19;21.58;;;15.55;;
51244;SDS011;37840;47.562;18.738;2024-02-15T13:35:46;22.77;;;16.00;;
51244;SDS011;37840;47.562;18.738;2024-02-15T13:38:11;21.50;;;16.02;;
51244;SDS011;37840;47.562;18.738;2024-02-15T13:40:48;21.98;;;15.98;;
51244;SDS011;37840;47.562;18.738;2024-02-15T13:43:17;21.23;;;15.93;;
51244;SDS011;37840;47.562;18.738;2024-02-15T13:45:44;21.50;;;15.82;;
51244;SDS011;37840;47.562;18.738;2024-02-15T13:48:10;23.75;;;17.23;;
51244;SDS011;37840;47.562;18.738;2024-02-15T13:50:40;21.60;;;16.30;;
51244;SDS011;37840;47.562;18.738;2024-02-15T13:53:06;20.98;;;14.57;;
51244;SDS011;37840;47.562;18.738;2024-02-15T13:55:34;21.40;;;15.18;;
51244;SDS011;37840;47.562;18.738;2024-02-15T13:58:01;22.95;;;15.30;;
51244;SDS011;37840;47.562;18.738;2024-02-15T14:00:28;19.40;;;14.10;;
51244;SDS011;37840;47.562;18.738;2024-02-15T14:02:59;20.42;;;14.70;;
51244;SDS011;37840;47.562;18.738;2024-02-15T14:05:27;23.02;;;15.63;;
51244;SDS011;37840;47.562;18.738;2024-02-15T14:07:55;21.83;;;15.02;;
51244;SDS011;37840;47.562;18.738;2024-02-15T14:10:22;17.90;;;14.98;;
51244;SDS011;37840;47.562;18.738;2024-02-15T14:12:50;19.35;;;13.02;;
51244;SDS011;37840;47.562;18.738;2024-02-15T14:15:37;18.83;;;13.45;;
51244;SDS011;37840;47.562;18.738;2024-02-15T14:18:04;18.65;;;13.80;;
51244;SDS011;37840;47.562;18.738;2024-02-15T14:20:31;22.48;;;13.57;;
51244;SDS011;37840;47.562;18.738;2024-02-15T14:22:56;19.15;;;13.48;;
51244;SDS011;37840;47.562;18.738;2024-02-15T14:25:23;15.48;;;12.90;;
51244;SDS011;37840;47.562;18.738;2024-02-15T14:27:49;17.02;;;12.07;;
51244;SDS011;37840;47.562;18.738;2024-02-15T14:30:15;18.30;;;12.68;;
51244;SDS011;37840;47.562;18.738;2024-02-15T14:32:59;18.55;;;12.90;;
51244;SDS011;37840;47.562;18.738;2024-02-15T14:35:28;18.08;;;12.75;;
51244;SDS011;37840;47.562;18.738;2024-02-15T14:37:56;19.92;;;12.43;;
51244;SDS011;37840;47.562;18.738;2024-02-15T14:40:27;15.07;;;12.37;;
51244;SDS011;37840;47.562;18.738;2024-02-15T14:42:54;17.23;;;12.37;;
51244;SDS011;37840;47.562;18.738;2024-02-15T14:45:20;15.95;;;11.90;;